• Join FlightAware (Why Join?)
  • Login
  • US Flag 
08:46AM EDT


 

Airport Tracker/Info


-or-


 

Live Flight TrackerFlight Track Log ✈ UAL1202 ✈ 17-Jun-2013 ✈ KSFO - KIAD

Flight Track Log - Related Links

Times and Time Zones

All times are in EDT time to prevent confusion due to time zone crossing. See the UAL1202 flight status page for this flight to view local times or setup timezone preferences in your user account.

Time Position Orientation Groundspeed Altitude Reporting Facility
EDT Latitude Longitude Course Direction KTS MPH feet Rate Location/Type
11:15AM 37.6220 -122.3910 42° Northeast 32 37  Level FlightAware
11:16AM 37.6250 -122.3880 38° Northeast 32 37  Level FlightAware
11:16AM 37.6220 -122.3880 180° South 33 38  Level FlightAware
11:16AM 37.6210 -122.3850 113° Southeast 31 36  Level FlightAware
11:17AM 37.6200 -122.3830 122° Southeast 33 38  Level FlightAware
11:18AM 37.6190 -122.3800 113° Southeast 32 37  Level FlightAware
11:18AM 37.6150 -122.3780 158° South 31 36  Level FlightAware
11:21AM 37.8353 -122.1477 43° Northeast  Level FlightAware Approximate
11:22AM 37.9323 -122.0345 43° Northeast  Level FlightAware Approximate
11:23AM 38.0410 -121.9423 38° Northeast  Level FlightAware Approximate
11:24AM 38.1416 -121.8390 28° Northeast  Level FlightAware Approximate
11:25AM 38.2462 -121.7372 38° Northeast  Level FlightAware Approximate
11:26AM 38.3499 -121.6334 38° Northeast  Level FlightAware Approximate
11:27AM 38.4501 -121.5248 50° Northeast  Level FlightAware Approximate
11:28AM 38.5275 -121.3885 55° Northeast  Level FlightAware Approximate
11:29AM 38.6051 -121.2522 53° Northeast  Level FlightAware Approximate
11:30AM 38.6850 -121.1178 53° Northeast  Level FlightAware Approximate
11:31AM 38.7647 -120.9831 53° Northeast  Level FlightAware Approximate
11:34AM 37.8824 -122.0929 43° Northeast  Level FlightAware Approximate
11:35AM 37.9821 -122.0013 38° Northeast  Level FlightAware Approximate
11:35AM 37.6070 -122.3830 38° Northeast 14 16  Level FlightAware
11:37AM 37.7906 -122.1928 38° Northeast  Level FlightAware Approximate
11:38AM 37.8850 -122.0898 43° Northeast  Level FlightAware Approximate
11:38AM 37.6060 -122.3830 43° Northeast 13 15  Level FlightAware
11:39AM 37.6070 -122.3810 58° Northeast 23 26 180 Level FlightAware
11:40AM 37.6080 -122.3800 38° Northeast 36 41 240 Level FlightAware
11:40AM 37.6120 -122.3770 31° Northeast 110 127 600 Level FlightAware
11:41AM 37.6322 -122.3630 29° Northeast 171 197 500 1,080 Climbing FlightAware ADS-B
11:41AM 37.6344 -122.3610 36° Northeast 176 203 600 1,980 Climbing FlightAware ADS-B
11:41AM 37.6389 -122.3540 51° Northeast 181 208 900 2,460 Climbing FlightAware ADS-B
11:41AM 37.6412 -122.3500 54° Northeast 186 214 1,100 1,500 Climbing FlightAware ADS-B
11:41AM 37.6493 -122.3360 54° Northeast 201 231 1,400 1,080 Climbing FlightAware ADS-B
11:41AM 37.6597 -122.3190 52° Northeast 225 259 1,700 900 Climbing FlightAware ADS-B
11:42AM 37.6702 -122.3020 52° Northeast 246 283 1,900 1,800 Climbing FlightAware ADS-B
11:42AM 37.6810 -122.2850 51° Northeast 250 288 2,600 3,000 Climbing FlightAware ADS-B
11:42AM 37.6922 -122.2680 50° Northeast 251 289 3,400 1,920 Climbing FlightAware ADS-B
11:42AM 37.7045 -122.2500 49° Northeast 272 313 3,600 1,920 Climbing FlightAware ADS-B
11:43AM 37.7174 -122.2310 49° Northeast 278 320 4,400 2,880 Climbing FlightAware ADS-B
11:43AM 37.7348 -122.2070 47° Northeast 276 318 5,300 2,760 Climbing FlightAware ADS-B
11:43AM 37.7467 -122.1940 41° Northeast 279 321 5,900 2,820 Climbing FlightAware ADS-B
11:43AM 37.7577 -122.1880 23° Northeast 278 320 6,300 2,460 Climbing FlightAware ADS-B
11:43AM 37.7615 -122.1870 12° North 278 320 6,400 2,220 Climbing FlightAware ADS-B
11:44AM 37.7676 -122.1850 15° North 278 320 6,600 2,400 Climbing FlightAware ADS-B
11:44AM 37.7893 -122.1820 North 281 323 7,300 2,400 Climbing FlightAware ADS-B
11:44AM 37.8060 -122.1790 North 286 329 7,800 2,400 Climbing FlightAware ADS-B
11:44AM 37.8154 -122.1760 14° North 290 334 8,100 2,700 Climbing FlightAware ADS-B
11:44AM 37.8200 -122.1730 27° Northeast 292 336 8,300 2,400 Climbing FlightAware ADS-B
11:44AM 37.8271 -122.1690 24° Northeast 296 341 8,500 1,980 Climbing FlightAware ADS-B
11:44AM 37.8305 -122.1660 35° Northeast 297 342 8,600 3,000 Climbing FlightAware ADS-B
11:44AM 37.8345 -122.1620 38° Northeast 298 343 8,800 2,520 Climbing FlightAware ADS-B
11:45AM 37.8512 -122.1450 39° Northeast 301 346 9,400 2,280 Climbing FlightAware ADS-B
11:45AM 37.8734 -122.1220 39° Northeast 305 351 10,200 2,340 Climbing FlightAware ADS-B
11:46AM 37.9079 -122.0880 38° Northeast 313 360 11,400 1,620 Climbing FlightAware ADS-B
11:46AM 37.9443 -122.0520 38° Northeast 345 397 11,900 1,500 Climbing FlightAware ADS-B
11:47AM 37.9840 -122.0130 38° Northeast 359 413 12,900 1,740 Climbing FlightAware ADS-B
11:48AM 38.0460 -121.9510 38° Northeast 369 425 14,700 2,040 Climbing FlightAware
11:48AM 38.1260 -121.8720 38° Northeast 381 438 16,700 2,400 Climbing FlightAware
11:49AM 38.1920 -121.8060 38° Northeast 389 448 18,300 1,860 Climbing FlightAware
11:50AM 38.2510 -121.7460 39° Northeast 401 461 19,400 1,680 Climbing FlightAware
11:51AM 38.3190 -121.6780 38° Northeast 410 472 20,800 1,740 Climbing FlightAware
11:51AM 38.3790 -121.6170 39° Northeast 417 480 21,900 1,500 Climbing FlightAware
11:52AM 38.4410 -121.5500 40° Northeast 428 493 22,900 1,380 Climbing FlightAware
11:53AM 38.4940 -121.4660 51° Northeast 438 504 23,900 1,200 Climbing FlightAware
11:53AM 38.5480 -121.3740 53° Northeast 448 516 24,700 1,200 Climbing FlightAware
11:54AM 38.5920 -121.2980 53° Northeast 452 520 25,500 1,380 Climbing FlightAware
11:55AM 38.6500 -121.1990 53° Northeast 456 525 26,600 1,380 Climbing FlightAware
11:55AM 38.7010 -121.1090 54° Northeast 459 528 27,500 1,260 Climbing FlightAware
11:56AM 38.7570 -121.0130 53° Northeast 462 532 28,400 1,020 Climbing FlightAware
11:57AM 38.8070 -120.9260 54° Northeast 468 539 29,000 780 Climbing FlightAware
11:57AM 38.8620 -120.8310 53° Northeast 479 551 29,500 720 Climbing FlightAware
11:58AM 38.9220 -120.7270 53° Northeast 486 559 30,100 780 Climbing FlightAware
11:59AM 38.9770 -120.6330 53° Northeast 489 563 30,700 780 Climbing FlightAware
12:00PM 39.0310 -120.5380 54° Northeast 492 566 31,200 960 Climbing FlightAware
12:00PM 39.0890 -120.4370 53° Northeast 487 560 32,100 1,080 Climbing FlightAware
12:01PM 39.1260 -120.3730 53° Northeast 485 558 32,700 540 Climbing FlightAware
12:02PM 39.2120 -120.2210 54° Northeast 477 549 33,000 120 Climbing FlightAware
12:03PM 39.2660 -120.1060 59° Northeast 482 555 33,000  Level FlightAware
12:04PM 39.3090 -120.0050 61° Northeast 482 555 33,000  Level FlightAware
12:04PM 39.3510 -119.9060 61° Northeast 483 556 33,000  Level FlightAware
12:05PM 39.3980 -119.7980 61° Northeast 483 556 33,000  Level FlightAware
12:06PM 39.4500 -119.6780 61° Northeast 483 556 33,000  Level FlightAware
12:06PM 39.4920 -119.5800 61° Northeast 483 556 33,000  Level FlightAware
12:07PM 39.5300 -119.4910 61° Northeast 482 555 33,000  Level FlightAware
12:08PM 39.5680 -119.4010 61° Northeast 483 556 33,000  Level FlightAware
12:09PM 39.6360 -119.2410 61° Northeast 483 556 33,000  Level FlightAware
12:09PM 39.6700 -119.1610 61° Northeast 483 556 33,000  Level FlightAware
12:10PM 39.7120 -119.0640 61° Northeast 483 556 33,000  Level FlightAware
12:11PM 39.7600 -118.9510 61° Northeast 483 556 33,000  Level FlightAware
12:12PM 39.8040 -118.8480 61° Northeast 483 556 33,000  Level FlightAware
12:12PM 39.8380 -118.7680 61° Northeast 483 556 33,000  Level FlightAware
12:13PM 39.8830 -118.6610 61° Northeast 483 556 33,000  Level FlightAware
12:14PM 39.9160 -118.5840 61° Northeast 483 556 33,000  Level FlightAware
12:15PM 39.9600 -118.4800 61° Northeast 483 556 33,000  Level FlightAware
12:15PM 39.9940 -118.3990 61° Northeast 483 556 33,000  Level FlightAware
12:16PM 40.0380 -118.2970 61° Northeast 483 556 33,000  Level FlightAware
12:17PM 40.0730 -118.2150 61° Northeast 483 556 33,000  Level FlightAware
12:18PM 40.1410 -118.0540 61° Northeast 483 556 33,000  Level FlightAware
12:18PM 40.2644 -117.7156 61° Northeast 483 556 33,000  Level Oakland Center
12:19PM 40.3233 -117.5686 62° Northeast 477 549 33,000  Level Oakland Center
12:20PM 40.3531 -117.4953 62° Northeast 476 548 33,000  Level Salt Lake Center
12:21PM 40.4119 -117.3472 62° Northeast 476 548 33,000  Level Salt Lake Center
12:22PM 40.4811 -117.1725 62° Northeast 478 550 33,000  Level Salt Lake Center
12:23PM 40.5417 -117.0236 62° Northeast 477 549 33,000  Level Salt Lake Center
12:24PM 40.5994 -116.8711 63° Northeast 477 549 33,000  Level Salt Lake Center
12:25PM 40.6667 -116.6967 63° Northeast 474 545 33,000  Level Salt Lake Center
12:26PM 40.7244 -116.5475 63° Northeast 475 547 33,000  Level Salt Lake Center
12:27PM 40.7917 -116.3750 63° Northeast 473 544 33,000  Level Salt Lake Center
12:28PM 40.8497 -116.2261 63° Northeast 475 547 33,000  Level Salt Lake Center
12:29PM 40.9156 -116.0511 63° Northeast 476 548 33,000  Level Salt Lake Center
12:30PM 40.9711 -115.9022 64° Northeast 472 543 33,000  Level Salt Lake Center
12:31PM 41.0367 -115.7283 63° Northeast 473 544 33,000  Level Salt Lake Center
12:32PM 41.0919 -115.5797 64° Northeast 470 541 33,000  Level Salt Lake Center
12:33PM 41.1478 -115.4308 63° Northeast 471 542 33,000  Level Salt Lake Center
12:34PM 41.2117 -115.2572 64° Northeast 469 540 33,000  Level Salt Lake Center
12:35PM 41.2661 -115.1097 64° Northeast 465 535 33,000  Level Salt Lake Center
12:36PM 41.3306 -114.9356 64° Northeast 469 540 33,000  Level Salt Lake Center
12:37PM 41.3858 -114.7828 64° Northeast 467 537 33,000  Level Salt Lake Center
12:38PM 41.4428 -114.6261 64° Northeast 471 542 33,000  Level Salt Lake Center
12:39PM 41.4983 -114.4706 64° Northeast 468 539 33,000  Level Salt Lake Center
12:41PM 41.5661 -114.2808 64° Northeast 471 542 33,000  Level Salt Lake Center
12:46PM 41.8850 -113.3770 64° Northeast 468 539 33,000  Level FlightAware
12:47PM 41.9180 -113.2820 65° Northeast 468 539 33,000  Level FlightAware
12:48PM 41.9480 -113.1950 65° Northeast 468 539 33,000  Level FlightAware
12:48PM 41.9780 -113.1090 65° Northeast 468 539 33,000  Level FlightAware
12:49PM 42.0070 -113.0260 65° Northeast 468 539 33,000  Level FlightAware
12:50PM 42.0420 -112.9230 65° Northeast 468 539 33,000  Level FlightAware
12:50PM 42.0720 -112.8380 65° Northeast 468 539 33,000  Level FlightAware
12:51PM 42.1080 -112.7340 65° Northeast 468 539 33,000  Level FlightAware
12:52PM 42.1360 -112.6530 65° Northeast 468 539 33,000  Level FlightAware
12:52PM 42.1740 -112.5430 65° Northeast 468 539 33,000  Level FlightAware
12:53PM 42.2020 -112.4620 65° Northeast 468 539 33,000  Level FlightAware
12:54PM 42.2390 -112.3540 65° Northeast 468 539 33,000  Level FlightAware
12:54PM 42.2670 -112.2730 65° Northeast 468 539 33,000  Level FlightAware
12:55PM 42.3050 -112.1620 65° Northeast 468 539 33,000  Level FlightAware
12:56PM 42.3320 -112.0830 65° Northeast 468 539 33,000  Level FlightAware
12:57PM 42.4692 -111.6186 65° Northeast 482 555 33,000  Level Salt Lake Center
12:58PM 42.5228 -111.4525 66° East 482 555 33,000  Level Salt Lake Center
12:59PM 42.5750 -111.2850 67° East 483 556 33,000  Level Salt Lake Center
01:00PM 42.6389 -111.0844 67° East 481 554 33,000  Level Salt Lake Center
01:01PM 42.6861 -110.9308 67° East 482 555 33,000  Level Salt Lake Center
01:02PM 42.7428 -110.7456 67° East 489 563 33,000  Level Salt Lake Center
01:03PM 42.7928 -110.5853 67° East 485 558 33,000  Level Salt Lake Center
01:04PM 42.8497 -110.4003 67° East 480 552 33,000  Level Salt Lake Center
01:05PM 42.8983 -110.2375 68° East 483 556 33,000  Level Salt Lake Center
01:06PM 42.9556 -110.0483 67° East 484 557 33,000  Level Salt Lake Center
01:07PM 43.0047 -109.8856 68° East 484 557 33,000  Level Salt Lake Center
01:08PM 43.0614 -109.6986 67° East 480 552 33,000  Level Salt Lake Center
01:09PM 43.1086 -109.5361 68° East 481 554 33,000  Level Salt Lake Center
01:11PM 43.1650 -109.3469 68° East 481 554 33,000  Level Salt Lake Center
01:12PM 43.2125 -109.1883 68° East 475 547 33,000  Level Salt Lake Center
01:13PM 43.2667 -108.9953 69° East 482 555 33,000  Level Salt Lake Center
01:14PM 43.3139 -108.8317 68° East 483 556 33,000  Level Salt Lake Center
01:15PM 43.3683 -108.6383 69° East 486 559 33,000  Level Salt Lake Center
01:16PM 43.4147 -108.4731 69° East 485 558 33,000  Level Salt Lake Center
01:17PM 43.4656 -108.2792 70° East 485 558 33,000  Level Salt Lake Center
01:18PM 43.4864 -108.1022 81° East 489 563 33,000  Level Salt Lake Center
01:19PM 43.5106 -107.8969 81° East 490 564 33,000  Level Salt Lake Center
01:20PM 43.5311 -107.7194 81° East 492 566 33,000  Level Salt Lake Center
01:21PM 43.5539 -107.5153 81° East 485 558 33,000  Level Salt Lake Center
01:22PM 43.5744 -107.3394 81° East 487 560 33,000  Level Salt Lake Center
01:23PM 43.5972 -107.1342 81° East 486 559 33,000  Level Salt Lake Center
01:23PM 43.6033 -107.0753 82° East 485 558 33,000  Level Denver Center
01:24PM 43.6261 -106.8731 81° East 488 562 33,000  Level Denver Center
01:25PM 43.6483 -106.6681 81° East 484 557 33,000  Level Denver Center
01:26PM 43.6667 -106.4914 82° East 484 557 33,000  Level Denver Center
01:28PM 43.6883 -106.2861 82° East 483 556 33,000  Level Denver Center
01:29PM 43.7067 -106.1072 82° East 488 562 33,000  Level Denver Center
01:30PM 43.7244 -105.9308 82° East 484 557 33,000  Level Denver Center
01:31PM 43.7453 -105.7225 82° East 487 560 33,000  Level Denver Center
01:32PM 43.7625 -105.5447 82° East 487 560 33,000  Level Denver Center
01:33PM 43.7822 -105.3364 82° East 488 562 33,000  Level Denver Center
01:34PM 43.7986 -105.1578 83° East 488 562 33,000  Level Denver Center
01:35PM 43.8178 -104.9483 83° East 488 562 33,000  Level Denver Center
01:36PM 43.8347 -104.7672 83° East 492 566 33,000  Level Denver Center
01:37PM 43.8522 -104.5597 83° East 486 559 33,000  Level Denver Center
01:38PM 43.8919 -104.3914 72° East 481 554 33,000  Level Denver Center
01:39PM 43.9522 -104.2075 65° Northeast 467 537 33,000  Level Denver Center
01:40PM 44.0056 -104.0483 65° Northeast 472 543 33,000  Level Denver Center
01:41PM 44.0572 -103.8889 66° East 472 543 33,000  Level Denver Center
01:42PM 44.1206 -103.7036 64° Northeast 474 545 33,000  Level Denver Center
01:43PM 44.1733 -103.5436 65° Northeast 474 545 33,000  Level Denver Center
01:44PM 44.2364 -103.3569 65° Northeast 474 545 33,000  Level Denver Center
01:45PM 44.2714 -103.1689 75° East 488 562 33,000  Level Denver Center
01:46PM 44.2533 -102.9769 97° East 500 575 33,000  Level Denver Center
01:47PM 44.2386 -102.7828 96° East 504 580 33,000  Level Denver Center
01:48PM 44.2242 -102.5881 96° East 505 581 33,000  Level Denver Center
01:49PM 44.2089 -102.3933 96° East 507 583 33,000  Level Denver Center
01:50PM 44.1894 -102.1589 97° East 509 586 33,000  Level Denver Center
01:51PM 44.1742 -101.9644 96° East 508 585 33,000  Level Denver Center
01:52PM 44.1553 -101.7694 98° East 508 585 33,000  Level Denver Center
01:53PM 44.1394 -101.5764 96° East 506 582 33,000  Level Denver Center
01:54PM 44.1231 -101.3839 97° East 504 580 33,000  Level Denver Center
01:55PM 44.1078 -101.1922 96° East 502 578 33,000  Level Denver Center
01:56PM 44.0967 -101.0397 96° East 503 579 33,000  Level Minneapolis Center
01:57PM 44.0783 -100.8128 96° East 500 575 33,000  Level Minneapolis Center
01:58PM 44.0614 -100.6208 97° East 501 577 33,000  Level Minneapolis Center
01:59PM 44.0428 -100.4272 98° East 506 582 33,000  Level Minneapolis Center
02:00PM 44.0261 -100.2342 97° East 507 583 33,000  Level Minneapolis Center
02:02PM 44.0033 -100.0033 98° East 507 583 33,000  Level Minneapolis Center
02:03PM 43.9853 -99.8100 97° East 508 585 33,000  Level Minneapolis Center
02:04PM 43.9661 -99.6178 98° East 507 583 33,000  Level Minneapolis Center
02:05PM 43.9439 -99.3864 98° East 507 583 33,000  Level Minneapolis Center
02:06PM 43.9239 -99.1956 98° East 505 581 33,000  Level Minneapolis Center
02:07PM 43.8997 -98.9653 98° East 505 581 33,000  Level Minneapolis Center
02:08PM 43.8764 -98.7342 98° East 507 583 33,000  Level Minneapolis Center
02:14PM 43.7440 -97.5580 98° East 517 595 33,000  Level FlightAware
02:15PM 43.7300 -97.4440 100° East 519 597 33,000  Level FlightAware
02:16PM 43.7120 -97.2880 99° East 519 597 33,000  Level FlightAware
02:16PM 43.6940 -97.1450 100° East 518 596 33,000  Level FlightAware
02:17PM 43.6780 -97.0150 100° East 517 595 33,000  Level FlightAware
02:18PM 43.6610 -96.8770 100° East 516 594 33,000  Level FlightAware
02:18PM 43.6440 -96.7380 100° East 514 592 33,000  Level FlightAware
02:19PM 43.6240 -96.6050 102° East 512 589 33,000  Level FlightAware
02:20PM 43.6040 -96.4690 101° East 511 588 33,000  Level FlightAware
02:20PM 43.5840 -96.3330 101° East 510 587 33,000  Level FlightAware
02:21PM 43.5650 -96.2090 102° East 509 586 33,000  Level FlightAware
02:22PM 43.5440 -96.0720 102° East 511 588 33,000  Level FlightAware
02:23PM 43.5230 -95.9310 102° East 513 590 33,000  Level FlightAware
02:23PM 43.5050 -95.8110 102° East 514 592 33,000  Level FlightAware
02:24PM 43.4830 -95.6640 102° East 514 592 33,000  Level FlightAware
02:25PM 43.4630 -95.5380 102° East 514 592 33,000  Level FlightAware
02:25PM 43.4420 -95.4030 102° East 514 592 33,000  Level FlightAware
02:26PM 43.4190 -95.2600 102° East 512 589 33,000  Level FlightAware
02:27PM 43.3970 -95.1210 102° East 513 590 33,000  Level FlightAware
02:27PM 43.3770 -95.0000 103° East 512 589 33,000  Level FlightAware
02:28PM 43.3530 -94.8530 103° East 512 589 33,000  Level FlightAware
02:29PM 43.3340 -94.7320 102° East 511 588 33,000  Level FlightAware
02:30PM 43.3110 -94.5920 103° East 510 587 33,000  Level FlightAware
02:30PM 43.2890 -94.4630 103° East 510 587 33,000  Level FlightAware
02:31PM 43.2700 -94.3450 102° East 510 587 33,000  Level FlightAware
02:32PM 43.2440 -94.1900 103° East 509 586 33,000  Level FlightAware
02:32PM 43.2230 -94.0680 103° East 510 587 33,000  Level FlightAware
02:33PM 43.2010 -93.9430 104° East 510 587 33,000  Level FlightAware
02:34PM 43.1770 -93.8040 103° East 510 587 33,000  Level FlightAware
02:34PM 43.1560 -93.6800 103° East 510 587 33,000  Level FlightAware
02:35PM 43.1330 -93.5480 103° East 512 589 33,000  Level FlightAware
02:36PM 43.1090 -93.4110 103° East 513 590 33,000  Level FlightAware
02:37PM 43.0810 -93.2770 106° East 514 592 33,000  Level FlightAware
02:37PM 43.0490 -93.1500 109° East 515 593 33,000  Level FlightAware
02:38PM 43.0190 -93.0310 109° East 516 594 33,000  Level FlightAware
02:39PM 42.9840 -92.8930 109° East 517 595 33,000  Level FlightAware
02:39PM 42.9530 -92.7690 109° East 517 595 33,000  Level FlightAware
02:40PM 42.9150 -92.6230 110° East 517 595 33,000  Level FlightAware
02:41PM 42.8840 -92.5030 109° East 515 593 33,000  Level FlightAware
02:41PM 42.8610 -92.4150 110° East 514 592 33,000  Level FlightAware
02:42PM 42.8270 -92.2820 109° East 514 592 33,000  Level FlightAware
02:43PM 42.7950 -92.1600 110° East 513 590 33,000  Level FlightAware
02:43PM 42.7630 -92.0400 110° East 514 592 33,000  Level FlightAware
02:44PM 42.7270 -91.9050 110° East 516 594 33,000  Level FlightAware
02:45PM 42.7030 -91.8150 110° East 518 596 33,000  Level FlightAware
02:45PM 42.6770 -91.7150 109° East 519 597 33,000  Level FlightAware
02:46PM 42.6360 -91.5660 110° East 520 598 33,000  Level FlightAware
02:47PM 42.6030 -91.4430 110° East 521 600 33,000  Level FlightAware
02:47PM 42.5710 -91.3250 110° East 520 598 33,000  Level FlightAware
02:48PM 42.5340 -91.1890 110° East 520 598 33,000  Level FlightAware
02:49PM 42.4970 -91.0540 110° East 519 597 33,000  Level FlightAware
02:49PM 42.4600 -90.9210 111° Southeast 519 597 33,000  Level FlightAware
02:50PM 42.4250 -90.7930 110° East 518 596 33,000  Level FlightAware
02:51PM 42.3780 -90.6410 113° Southeast 517 595 33,000  Level FlightAware
02:52PM 42.3470 -90.5510 115° Southeast 516 594 33,000  Level FlightAware
02:52PM 42.3040 -90.4250 115° Southeast 516 594 33,000  Level FlightAware
02:53PM 42.2630 -90.3070 115° Southeast 517 595 33,000  Level FlightAware
02:54PM 42.2180 -90.1800 116° Southeast 519 597 33,000  Level FlightAware
02:54PM 42.1750 -90.0560 115° Southeast 521 600 33,000  Level FlightAware
02:55PM 42.1330 -89.9370 115° Southeast 523 602 33,000  Level FlightAware
02:56PM 42.0890 -89.8120 115° Southeast 524 603 33,000  Level FlightAware
02:56PM 42.0460 -89.6910 116° Southeast 524 603 33,000  Level FlightAware
02:57PM 42.0020 -89.5690 116° Southeast 525 604 33,000  Level FlightAware
02:58PM 41.9580 -89.4450 115° Southeast 524 603 33,000  Level FlightAware
02:58PM 41.9130 -89.3200 116° Southeast 525 604 33,000  Level FlightAware
02:59PM 41.8690 -89.1980 116° Southeast 524 603 33,000  Level FlightAware
03:00PM 41.8230 -89.0700 116° Southeast 523 602 33,000  Level FlightAware
03:01PM 41.7790 -88.9480 116° Southeast 522 601 33,000  Level FlightAware
03:01PM 41.7330 -88.8250 117° Southeast 521 600 33,000  Level FlightAware
03:02PM 41.6920 -88.7110 116° Southeast 522 601 33,000  Level FlightAware
03:03PM 41.6490 -88.5950 116° Southeast 523 602 33,000  Level FlightAware
03:03PM 41.6020 -88.4690 116° Southeast 514 592 33,000  Level FlightAware
03:04PM 41.5600 -88.3530 116° Southeast 515 593 33,000  Level FlightAware
03:05PM 41.5240 -88.2130 109° East 524 603 33,000  Level FlightAware
03:05PM 41.4970 -88.0910 106° East 524 603 33,000  Level FlightAware
03:06PM 41.4700 -87.9640 106° East 525 604 33,000  Level FlightAware
03:07PM 41.4440 -87.8450 106° East 526 605 33,000  Level FlightAware
03:08PM 41.4160 -87.7160 106° East 525 604 33,000  Level FlightAware
03:08PM 41.3820 -87.5650 107° East 525 604 33,000  Level FlightAware
03:09PM 41.3640 -87.4820 106° East 525 604 33,000  Level FlightAware
03:09PM 41.3350 -87.3550 107° East 524 603 33,000 -600 Level FlightAware
03:10PM 41.3050 -87.2180 106° East 516 594 32,200 -1,020 Descending FlightAware
03:11PM 41.2650 -87.0410 107° East 507 583 31,300 -720 Descending FlightAware
03:12PM 41.2390 -86.9260 107° East 504 580 31,000 -240 Descending FlightAware
03:13PM 41.2090 -86.7970 107° East 503 579 31,000  Level FlightAware
03:13PM 41.1810 -86.6740 107° East 507 583 31,000  Level FlightAware
03:14PM 41.1560 -86.5660 107° East 510 587 31,000  Level FlightAware
03:15PM 41.1200 -86.4130 107° East 515 593 31,000  Level FlightAware
03:15PM 41.0920 -86.2940 107° East 514 592 31,000  Level FlightAware
03:16PM 41.0630 -86.1690 107° East 513 590 31,000  Level FlightAware
03:17PM 41.0320 -86.0380 107° East 512 589 31,000  Level FlightAware
03:17PM 41.0010 -85.9080 107° East 510 587 31,000  Level FlightAware
03:18PM 40.9720 -85.7860 107° East 509 586 31,000  Level FlightAware
03:19PM 40.9450 -85.6730 108° East 508 585 31,000  Level FlightAware
03:20PM 40.9130 -85.5400 108° East 507 583 31,000  Level FlightAware
03:20PM 40.8820 -85.4140 108° East 507 583 31,000  Level FlightAware
03:21PM 40.8520 -85.2910 108° East 507 583 31,000  Level FlightAware
03:22PM 40.8250 -85.1800 108° East 507 583 31,000  Level FlightAware
03:22PM 40.7940 -85.0550 108° East 508 585 31,000  Level FlightAware
03:23PM 40.7610 -84.9200 108° East 509 586 31,000  Level FlightAware
03:24PM 40.7290 -84.7940 108° East 511 588 31,000  Level FlightAware
03:24PM 40.6990 -84.6730 108° East 512 589 31,000  Level FlightAware
03:25PM 40.6680 -84.5530 109° East 515 593 31,000  Level FlightAware
03:26PM 40.6350 -84.4200 108° East 517 595 31,000  Level FlightAware
03:27PM 40.6020 -84.2930 109° East 519 597 31,000  Level FlightAware
03:27PM 40.5700 -84.1670 108° East 519 597 31,000  Level FlightAware
03:28PM 40.5370 -84.0410 109° East 520 598 31,000  Level FlightAware
03:29PM 40.5070 -83.9230 108° East 517 595 31,000  Level FlightAware
03:29PM 40.4760 -83.8040 109° East 514 592 31,000  Level FlightAware
03:30PM 40.4410 -83.6690 109° East 515 593 31,000  Level FlightAware
03:31PM 40.4080 -83.5450 109° East 518 596 31,000  Level FlightAware
03:31PM 40.3770 -83.4270 109° East 518 596 31,000  Level FlightAware
03:32PM 40.3530 -83.3370 109° East 519 597 31,000  Level FlightAware
03:33PM 40.3300 -83.2130 104° East 524 603 31,000  Level FlightAware
03:33PM 40.3160 -83.0950 99° East 523 602 31,000  Level FlightAware
03:34PM 40.2990 -82.9510 99° East 523 602 31,000  Level FlightAware
03:35PM 40.2850 -82.8390 99° East 522 601 31,000  Level FlightAware
03:35PM 40.2690 -82.7090 99° East 522 601 31,000  Level FlightAware
03:36PM 40.2500 -82.5610 100° East 522 601 31,000  Level FlightAware
03:37PM 40.2340 -82.4310 99° East 525 604 31,000  Level FlightAware
03:38PM 40.2170 -82.2980 99° East 526 605 31,000  Level FlightAware
03:38PM 40.2010 -82.1760 100° East 527 606 31,000  Level FlightAware
03:39PM 40.1830 -82.0390 100° East 527 606 31,000  Level FlightAware
03:40PM 40.1650 -81.8980 99° East 525 604 31,000  Level FlightAware
03:40PM 40.1490 -81.7760 100° East 526 605 31,000  Level FlightAware
03:41PM 40.1320 -81.6560 100° East 527 606 31,000  Level FlightAware
03:42PM 40.1140 -81.5170 100° East 524 603 31,000  Level FlightAware
03:42PM 40.0970 -81.3960 100° East 527 606 31,000  Level FlightAware
03:43PM 40.0760 -81.2440 100° East 526 605 31,000  Level FlightAware
03:44PM 40.0590 -81.1180 100° East 525 604 31,000  Level FlightAware
03:44PM 40.0460 -81.0250 100° East 525 604 31,000  Level FlightAware
03:45PM 40.0280 -80.9000 101° East 527 606 31,000  Level FlightAware
03:46PM 39.9940 -80.7710 109° East 533 613 31,000  Level FlightAware
03:46PM 39.9450 -80.6490 118° Southeast 536 617 31,000  Level FlightAware
03:47PM 39.9070 -80.5510 117° Southeast 536 617 31,000  Level FlightAware
03:48PM 39.8620 -80.4360 117° Southeast 536 617 31,000  Level FlightAware
03:48PM 39.8250 -80.3430 117° Southeast 536 617 31,000 -1,020 Level FlightAware
03:49PM 39.7570 -80.1740 118° Southeast 507 583 29,700 -1,380 Descending FlightAware
03:50PM 39.7110 -80.0600 118° Southeast 524 603 29,100 -1,020 Descending FlightAware
03:51PM 39.6680 -79.9520 117° Southeast 520 598 28,400 -1,020 Descending FlightAware
03:51PM 39.6180 -79.8270 117° Southeast 512 589 27,700 -960 Descending FlightAware
03:52PM 39.5790 -79.7310 118° Southeast 509 586 27,100 -600 Descending FlightAware
03:53PM 39.5390 -79.6330 118° Southeast 508 585 27,000 -120 Descending FlightAware
03:53PM 39.4930 -79.5000 114° Southeast 512 589 27,000 -960 Level FlightAware
03:54PM 39.4700 -79.3810 104° East 509 586 25,600 -2,160 Descending FlightAware
03:55PM 39.4510 -79.2780 103° East 502 578 24,300 -1,680 Descending FlightAware
03:55PM 39.4260 -79.1370 103° East 468 539 23,200 -1,500 Descending FlightAware
03:56PM 39.4110 -79.0520 103° East 441 507 22,300 -2,820 Descending FlightAware
03:56PM 39.3960 -78.9690 103° East 447 514 20,200 -2,940 Descending FlightAware
03:57PM 39.3790 -78.8730 103° East 435 501 18,900 -2,040 Descending FlightAware
03:58PM 39.3600 -78.7620 102° East 424 488 17,400 -1,980 Descending FlightAware
03:59PM 39.3400 -78.6580 104° East 414 476 16,000 -2,040 Descending FlightAware
03:59PM 39.3220 -78.5610 103° East 400 460 14,600 -1,920 Descending FlightAware
04:00PM 39.3120 -78.5040 103° East 388 447 13,800 -1,800 Descending FlightAware
04:00PM 39.2940 -78.4020 103° East 370 426 12,500 -1,860 Descending FlightAware
04:01PM 39.2640 -78.3230 116° Southeast 361 415 11,300 -1,140 Descending FlightAware
04:02PM 39.2310 -78.2600 124° Southeast 329 379 11,000 -960 Descending FlightAware
04:02PM 39.2000 -78.2020 125° Southeast 322 371 10,100 -1,440 Descending FlightAware
04:03PM 39.1780 -78.1610 125° Southeast 309 356 9,600 -1,200 Descending FlightAware
04:03PM 39.1590 -78.1250 124° Southeast 303 349 9,100 -1,380 Descending FlightAware
04:03PM 39.1490 -78.1060 124° Southeast 300 345 8,700 -1,860 Descending FlightAware
04:04PM 39.1250 -78.0600 124° Southeast 301 346 7,800 -1,680 Descending FlightAware
04:04PM 39.1120 -78.0350 124° Southeast 300 345 7,400 -1,200 Descending FlightAware
04:05PM 39.0950 -78.0040 125° Southeast 295 339 7,000 -1,140 Descending FlightAware
04:05PM 39.0740 -77.9620 123° Southeast 295 339 6,500 -1,260 Descending FlightAware
04:05PM 39.0640 -77.9440 126° Southeast 294 338 6,200 -660 Descending FlightAware
04:06PM 39.0400 -77.8980 124° Southeast 289 333 6,000 -300 Descending FlightAware
04:06PM 39.0280 -77.8760 125° Southeast 288 331 6,000  Level FlightAware
04:07PM 39.0060 -77.8340 124° Southeast 285 328 6,000  Level FlightAware
04:07PM 38.9860 -77.7990 126° Southeast 286 329 6,000  Level FlightAware
04:07PM 38.9720 -77.7710 123° Southeast 286 329 6,000  Level FlightAware
04:08PM 38.9620 -77.7300 107° East 289 333 6,000  Level FlightAware
04:08PM 38.9580 -77.6880 97° East 291 335 6,000  Level FlightAware
04:08PM 38.9560 -77.6650 96° East 289 333 6,000  Level FlightAware
04:09PM 38.9400 -77.6210 115° Southeast 260 299 6,000  Level FlightAware
04:09PM 38.9280 -77.6110 147° Southeast 255 293 6,000  Level FlightAware
04:09PM 38.9120 -77.6030 159° South 255 293 6,000  Level FlightAware
04:10PM 38.8790 -77.5860 158° South 252 290 6,000 -120 Level FlightAware
04:10PM 38.8530 -77.5750 162° South 223 257 5,900 -900 Descending FlightAware
04:11PM 38.8090 -77.5640 169° South 217 250 5,000 -1,200 Descending FlightAware
04:11PM 38.8020 -77.5490 121° Southeast 214 246 4,700 -1,140 Descending FlightAware
04:12PM 38.8270 -77.5030 55° Northeast 195 224 3,700 -1,200 Descending FlightAware
04:13PM 38.8460 -77.4790 45° Northeast 188 216 3,100 -1,380 Descending FlightAware
04:13PM 38.8520 -77.4730 38° Northeast 182 209 2,800 -2,520 Descending FlightAware
04:13PM 38.8700 -77.4610 27° Northeast 196 226 1,900 -2,340 Descending FlightAware
04:13PM 38.8833 -77.4667 27° Northeast 201 231 1,400 -1,500 Descending Potomac TRACON
04:15PM 38.9333 -77.4500 159° South  Level FlightAware Approximate
04:22PM 38.9474 -77.4599 159° South  Level Estimated
04:23PM 38.9474 -77.4599 159° South  Level Estimated
04:24PM 38.9474 -77.4599 159° South  Level Estimated
04:25PM 38.9474 -77.4599 159° South  Level Estimated